createdAt,value
2019-02-09T00:01:14.610Z,99783.28
2019-02-09T00:03:43.982Z,99802.46
2019-02-09T00:06:13.301Z,99813.76
2019-02-09T00:08:42.641Z,99821.73
2019-02-09T00:11:11.957Z,99818.99
2019-02-09T00:13:41.321Z,99821.73
2019-02-09T00:16:10.644Z,99834.92
2019-02-09T00:18:40.004Z,99820.80
2019-02-09T00:21:09.331Z,99804.94
2019-02-09T00:23:38.648Z,99818.44
2019-02-09T00:26:07.983Z,99829.09
2019-02-09T00:28:37.300Z,99810.26
2019-02-09T00:31:06.844Z,99801.33
2019-02-09T00:33:36.165Z,99810.53
2019-02-09T00:36:07.687Z,99814.17
2019-02-09T00:38:37.038Z,99837.59
2019-02-09T00:41:07.271Z,99827.24
2019-02-09T00:43:36.587Z,99843.20
2019-02-09T00:46:07.263Z,99847.00
2019-02-09T00:48:36.587Z,99843.36
2019-02-09T00:51:05.904Z,99833.53
2019-02-09T00:53:35.265Z,99836.03
2019-02-09T00:56:04.995Z,99853.66
2019-02-09T00:58:34.336Z,99839.77
2019-02-09T01:01:03.664Z,99857.66
2019-02-09T01:03:32.999Z,99881.86
2019-02-09T01:06:02.360Z,99856.39
2019-02-09T01:08:33.549Z,99870.26
2019-02-09T01:11:02.921Z,99882.11
2019-02-09T01:13:32.256Z,99875.03
2019-02-09T01:16:01.598Z,99871.19
2019-02-09T01:18:30.927Z,99860.16
2019-02-09T01:21:00.249Z,99869.63
2019-02-09T01:23:29.559Z,99862.39
2019-02-09T01:25:58.919Z,99865.92
2019-02-09T01:28:28.263Z,99848.86
2019-02-09T01:30:57.574Z,99855.55
2019-02-09T01:33:26.906Z,99853.90
2019-02-09T01:35:56.231Z,99862.34
2019-02-09T01:38:25.591Z,99853.81
2019-02-09T01:40:54.922Z,99868.12
2019-02-09T01:43:24.282Z,99863.09
2019-02-09T01:45:53.594Z,99849.52
2019-02-09T01:48:22.945Z,99852.16
2019-02-09T01:50:52.270Z,99925.98
2019-02-09T01:53:21.612Z,99850.32
2019-02-09T01:55:50.951Z,99879.62
2019-02-09T01:58:20.257Z,99892.88
2019-02-09T02:00:49.605Z,99884.26
2019-02-09T02:03:18.929Z,99894.63
2019-02-09T02:05:48.354Z,99901.31
2019-02-09T02:08:20.464Z,99901.40
2019-02-09T02:10:49.828Z,99880.70
2019-02-09T02:13:19.132Z,99910.77
2019-02-09T02:15:48.461Z,99882.59
2019-02-09T02:18:17.803Z,99904.73
2019-02-09T02:20:48.248Z,99880.84
2019-02-09T02:23:17.580Z,99889.22
2019-02-09T02:25:47.931Z,99874.89
2019-02-09T02:28:17.264Z,99922.94
2019-02-09T02:30:46.579Z,99933.95
2019-02-09T02:33:15.926Z,99927.32
2019-02-09T02:35:45.368Z,99925.18
2019-02-09T02:38:14.719Z,99951.66
2019-02-09T02:40:44.074Z,99935.31
2019-02-09T02:43:13.419Z,99925.48
2019-02-09T02:45:42.742Z,99943.19
2019-02-09T02:48:12.073Z,99958.74
2019-02-09T02:50:41.384Z,99936.61
2019-02-09T02:53:10.723Z,99952.02
2019-02-09T02:55:40.048Z,99958.29
2019-02-09T02:58:09.382Z,99950.71
2019-02-09T03:00:38.927Z,99970.86
2019-02-09T03:03:08.344Z,99959.94
2019-02-09T03:05:37.628Z,99965.88
2019-02-09T03:08:07.346Z,99968.31
2019-02-09T03:10:36.726Z,99974.34
2019-02-09T03:13:06.085Z,99958.69
2019-02-09T03:15:35.709Z,99962.58
2019-02-09T03:18:05.723Z,99972.20
2019-02-09T03:20:35.042Z,99966.86
2019-02-09T03:23:05.586Z,99956.33
2019-02-09T03:25:36.129Z,99976.39
2019-02-09T03:28:05.974Z,99972.79
2019-02-09T03:30:46.693Z,99988.81
2019-02-09T03:33:06.343Z,99972.49
2019-02-09T03:35:35.711Z,99956.17
2019-02-09T03:38:05.358Z,99955.33
2019-02-09T03:40:34.719Z,99969.44
2019-02-09T03:43:04.173Z,99972.19
2019-02-09T03:45:33.594Z,99962.77
2019-02-09T03:48:03.255Z,99964.73
2019-02-09T03:50:32.748Z,99947.52
2019-02-09T03:53:02.755Z,99974.20
2019-02-09T03:55:32.095Z,99977.70
2019-02-09T03:58:03.621Z,99976.49
2019-02-09T04:00:32.978Z,99978.09
2019-02-09T04:03:02.612Z,99987.56
2019-02-09T04:05:32.018Z,99962.08
2019-02-09T04:08:01.365Z,99992.50
2019-02-09T04:10:30.701Z,99998.90
2019-02-09T04:13:00.071Z,99976.23
2019-02-09T04:15:29.517Z,100025.77
2019-02-09T04:17:58.831Z,99987.66
2019-02-09T04:20:28.179Z,100012.40
2019-02-09T04:22:57.501Z,100006.27
2019-02-09T04:25:26.850Z,100001.47
2019-02-09T04:27:56.175Z,100010.65
2019-02-09T04:30:27.338Z,100002.22
2019-02-09T04:32:58.026Z,99995.22
2019-02-09T04:35:27.350Z,100049.09
2019-02-09T04:37:58.162Z,100027.67
2019-02-09T04:40:29.067Z,100053.30
2019-02-09T04:42:58.504Z,100058.18
2019-02-09T04:45:29.443Z,100063.45
2019-02-09T04:47:58.769Z,100038.21
2019-02-09T04:50:28.097Z,100051.99
2019-02-09T04:52:57.430Z,100053.23
2019-02-09T04:55:28.235Z,100042.71
2019-02-09T04:57:57.862Z,100062.02
2019-02-09T05:00:28.958Z,100061.47
2019-02-09T05:02:58.587Z,100062.53
2019-02-09T05:05:28.525Z,100070.62
2019-02-09T05:07:57.965Z,100069.56
2019-02-09T05:10:27.372Z,100087.22
2019-02-09T05:12:59.104Z,100098.42
2019-02-09T05:15:30.045Z,100102.63
2019-02-09T05:17:59.401Z,100093.25
2019-02-09T05:20:28.721Z,100098.21
2019-02-09T05:22:58.070Z,100093.66
2019-02-09T05:25:27.397Z,100089.94
2019-02-09T05:27:56.705Z,100087.30
2019-02-09T05:30:27.433Z,100106.59
2019-02-09T05:32:57.223Z,100114.28
2019-02-09T05:35:26.682Z,100111.32
2019-02-09T05:37:56.041Z,100132.23
2019-02-09T05:40:25.978Z,100114.08
2019-02-09T05:42:55.594Z,100092.14
2019-02-09T05:45:26.471Z,100111.37
2019-02-09T05:47:55.826Z,100139.29
2019-02-09T05:50:25.162Z,100109.13
2019-02-09T05:52:54.472Z,100131.33
2019-02-09T05:55:23.914Z,100143.56
2019-02-09T05:57:53.341Z,100143.38
2019-02-09T06:00:30.371Z,100128.09
2019-02-09T06:02:59.702Z,100131.13
2019-02-09T06:05:29.048Z,100145.70
2019-02-09T06:07:59.226Z,100152.72
2019-02-09T06:10:28.612Z,100163.72
2019-02-09T06:12:57.884Z,100147.29
2019-02-09T06:15:27.449Z,100165.78
2019-02-09T06:17:56.768Z,100162.57
2019-02-09T06:20:26.646Z,100202.73
2019-02-09T06:22:55.990Z,100190.63
2019-02-09T06:25:25.627Z,100172.04
2019-02-09T06:27:54.963Z,100177.52
2019-02-09T06:30:26.007Z,100173.69
2019-02-09T06:32:55.362Z,100181.14
2019-02-09T06:35:25.166Z,100188.14
2019-02-09T06:37:54.505Z,100182.52
2019-02-09T06:40:24.243Z,100202.75
2019-02-09T06:42:53.642Z,100214.36
2019-02-09T06:45:23.443Z,100199.91
2019-02-09T06:47:52.801Z,100211.30
2019-02-09T06:50:27.639Z,100208.12
2019-02-09T06:52:56.991Z,100207.14
2019-02-09T06:55:26.356Z,100254.42
2019-02-09T06:57:55.918Z,100249.77
2019-02-09T07:00:25.254Z,100224.64
2019-02-09T07:02:54.703Z,100230.24
2019-02-09T07:05:24.013Z,100261.05
2019-02-09T07:07:53.464Z,100301.84
2019-02-09T07:10:24.140Z,100254.59
2019-02-09T07:12:53.737Z,100203.97
2019-02-09T07:15:25.547Z,100260.25
2019-02-09T07:17:55.011Z,100269.56
2019-02-09T07:20:24.537Z,100268.42
2019-02-09T07:22:54.598Z,100282.78
2019-02-09T07:25:24.797Z,100281.37
2019-02-09T07:27:54.148Z,100293.66
2019-02-09T07:30:25.292Z,100303.90
2019-02-09T07:32:55.211Z,100318.34
2019-02-09T07:35:24.586Z,100300.54
2019-02-09T07:37:53.955Z,100327.98
2019-02-09T07:40:23.946Z,100333.83
2019-02-09T07:42:53.405Z,100320.69
2019-02-09T07:45:24.650Z,100324.00
2019-02-09T07:47:53.991Z,100322.90
2019-02-09T07:50:24.659Z,100329.94
2019-02-09T07:52:54.483Z,100351.52
2019-02-09T07:55:24.301Z,100328.92
2019-02-09T07:57:53.833Z,100329.23
2019-02-09T08:00:24.941Z,100324.38
2019-02-09T08:02:54.823Z,100328.14
2019-02-09T08:05:26.148Z,100345.30
2019-02-09T08:07:55.812Z,100331.37
2019-02-09T08:10:27.705Z,100342.45
2019-02-09T08:12:57.169Z,100364.27
2019-02-09T08:15:28.505Z,100352.03
2019-02-09T08:17:57.888Z,100357.45
2019-02-09T08:20:28.090Z,100371.45
2019-02-09T08:22:58.643Z,100372.55
2019-02-09T08:25:29.632Z,100377.08
2019-02-09T08:27:59.351Z,100383.30
2019-02-09T08:30:34.173Z,100387.59
2019-02-09T08:33:03.883Z,100381.34
2019-02-09T08:35:33.256Z,100351.78
2019-02-09T08:38:02.595Z,100386.05
2019-02-09T08:40:31.933Z,100381.18
2019-02-09T08:43:01.285Z,100376.66
2019-02-09T08:45:30.620Z,100379.94
2019-02-09T08:47:59.970Z,100363.55
2019-02-09T08:50:31.752Z,100361.72
2019-02-09T08:53:01.205Z,100377.60
2019-02-09T08:55:30.786Z,100390.13
2019-02-09T08:58:01.299Z,100373.63
2019-02-09T09:00:34.156Z,100386.91
2019-02-09T09:03:04.555Z,100420.14
2019-02-09T09:05:34.273Z,100400.23
2019-02-09T09:08:03.704Z,100411.16
2019-02-09T09:10:33.073Z,100423.30
2019-02-09T09:13:02.437Z,100418.97
2019-02-09T09:15:43.170Z,100422.71
2019-02-09T09:18:12.632Z,100415.06
2019-02-09T09:20:44.969Z,100427.98
2019-02-09T09:23:14.299Z,100426.87
2019-02-09T09:25:43.660Z,100429.98
2019-02-09T09:28:12.991Z,100417.14
2019-02-09T09:30:42.367Z,100447.55
2019-02-09T09:33:11.683Z,100431.25
2019-02-09T09:35:41.098Z,100439.30
2019-02-09T09:38:10.564Z,100440.34
2019-02-09T09:40:41.453Z,100462.62
2019-02-09T09:43:10.896Z,100448.63
2019-02-09T09:45:40.923Z,100446.80
2019-02-09T09:48:12.611Z,100450.96
2019-02-09T09:50:41.954Z,100448.61
2019-02-09T09:53:11.472Z,100462.48
2019-02-09T09:55:41.150Z,100447.55
2019-02-09T09:58:10.726Z,100461.19
2019-02-09T10:00:40.162Z,100456.31
2019-02-09T10:03:09.509Z,100476.05
2019-02-09T10:05:38.873Z,100478.16
2019-02-09T10:08:09.160Z,100472.70
2019-02-09T10:10:38.483Z,100479.98
2019-02-09T10:13:08.035Z,100482.81
2019-02-09T10:15:37.447Z,100482.05
2019-02-09T10:18:07.011Z,100474.66
2019-02-09T10:20:36.362Z,100479.36
2019-02-09T10:23:05.922Z,100487.77
2019-02-09T10:25:35.284Z,100469.61
2019-02-09T10:28:05.055Z,100469.47
2019-02-09T10:30:34.517Z,100480.04
2019-02-09T10:33:03.982Z,100486.71
2019-02-09T10:35:33.332Z,100483.76
2019-02-09T10:38:02.677Z,100491.86
2019-02-09T10:40:33.214Z,100491.72
2019-02-09T10:43:03.081Z,100494.59
2019-02-09T10:45:34.616Z,100487.25
2019-02-09T10:48:04.063Z,100486.31
2019-02-09T10:50:39.381Z,100520.66
2019-02-09T10:53:09.245Z,100498.35
2019-02-09T10:55:38.578Z,100496.19
2019-02-09T10:58:08.358Z,100496.05
2019-02-09T11:00:49.159Z,100488.56
2019-02-09T11:03:18.589Z,100501.42
2019-02-09T11:05:48.029Z,100495.69
2019-02-09T11:08:17.798Z,100503.65
2019-02-09T11:10:47.420Z,100512.97
2019-02-09T11:13:16.968Z,100509.73
2019-02-09T11:15:48.115Z,100511.25
2019-02-09T11:18:17.490Z,100514.24
2019-02-09T11:20:46.810Z,100521.95
2019-02-09T11:23:16.308Z,100522.72
2019-02-09T11:25:45.766Z,100532.16
2019-02-09T11:28:15.119Z,100544.53
2019-02-09T11:30:45.952Z,100524.98
2019-02-09T11:33:15.372Z,100527.88
2019-02-09T11:35:44.830Z,100518.64
2019-02-09T11:38:14.203Z,100542.80
2019-02-09T11:40:43.685Z,100529.71
2019-02-09T11:43:13.027Z,100530.95
2019-02-09T11:45:42.428Z,100511.31
2019-02-09T11:48:11.753Z,100508.56
2019-02-09T11:50:41.391Z,100543.05
2019-02-09T11:53:10.755Z,100518.34
2019-02-09T11:55:40.087Z,100506.03
2019-02-09T11:58:09.502Z,100514.69
2019-02-09T12:00:47.440Z,100513.39
2019-02-09T12:03:16.767Z,100514.14
2019-02-09T12:05:46.159Z,100506.73
2019-02-09T12:08:15.531Z,100495.34
2019-02-09T12:10:45.857Z,100524.62
2019-02-09T12:13:15.166Z,100522.81
2019-02-09T12:15:44.754Z,100516.16
2019-02-09T12:18:14.092Z,100512.92
2019-02-09T12:20:43.444Z,100504.91
2019-02-09T12:23:12.802Z,100515.62
2019-02-09T12:25:42.265Z,100506.66
2019-02-09T12:28:11.747Z,100506.88
2019-02-09T12:30:41.520Z,100510.48
2019-02-09T12:33:10.925Z,100497.67
2019-02-09T12:35:40.584Z,100506.27
2019-02-09T12:38:10.374Z,100507.78
2019-02-09T12:40:40.047Z,100505.78
2019-02-09T12:43:09.510Z,100508.78
2019-02-09T12:45:39.270Z,100503.18
2019-02-09T12:48:09.359Z,100518.34
2019-02-09T12:50:39.476Z,100515.28
2019-02-09T12:53:08.945Z,100518.64
2019-02-09T12:55:38.265Z,100519.95
2019-02-09T12:58:07.921Z,100514.89
2019-02-09T13:00:37.982Z,100515.83
2019-02-09T13:03:15.986Z,100511.14
2019-02-09T13:05:45.453Z,100526.00
2019-02-09T13:08:14.816Z,100520.80
2019-02-09T13:10:46.583Z,100538.66
2019-02-09T13:13:15.931Z,100516.98
2019-02-09T13:15:45.288Z,100519.89
2019-02-09T13:18:14.691Z,100537.56
2019-02-09T13:20:44.130Z,100515.53
2019-02-09T13:23:13.582Z,100504.73
2019-02-09T13:25:42.915Z,100508.17
2019-02-09T13:28:12.417Z,100502.42
2019-02-09T13:30:42.096Z,100515.05
2019-02-09T13:33:11.552Z,100504.58
2019-02-09T13:35:40.961Z,100516.83
2019-02-09T13:38:10.303Z,100519.19
2019-02-09T13:40:39.675Z,100509.17
2019-02-09T13:43:09.039Z,100502.27
2019-02-09T13:45:44.204Z,100503.57
2019-02-09T13:48:13.628Z,100512.98
2019-02-09T13:50:43.009Z,100512.89
2019-02-09T13:53:12.493Z,100504.33
2019-02-09T13:55:41.891Z,100495.61
2019-02-09T13:58:11.285Z,100497.36
2019-02-09T14:00:40.761Z,100487.41
2019-02-09T14:03:10.316Z,100498.75
2019-02-09T14:05:39.691Z,100481.44
2019-02-09T14:08:09.864Z,100481.29
2019-02-09T14:10:39.284Z,100482.59
2019-02-09T14:13:14.314Z,100474.39
2019-02-09T14:15:39.876Z,100478.59
2019-02-09T14:18:10.604Z,100469.93
2019-02-09T14:20:40.050Z,100467.52
2019-02-09T14:23:09.455Z,100475.33
2019-02-09T14:25:38.906Z,100463.67
2019-02-09T14:28:08.768Z,100468.42
2019-02-09T14:30:38.575Z,100466.83
2019-02-09T14:33:09.653Z,100470.79
2019-02-09T14:35:40.717Z,100474.48
2019-02-09T14:38:10.238Z,100467.29
2019-02-09T14:40:40.708Z,100455.89
2019-02-09T14:43:10.624Z,100461.19
2019-02-09T14:45:41.855Z,100480.70
2019-02-09T14:48:11.237Z,100459.64
2019-02-09T14:50:40.607Z,100445.81
2019-02-09T14:53:10.956Z,100449.78
2019-02-09T14:55:40.700Z,100450.33
2019-02-09T14:58:10.204Z,100466.84
2019-02-09T15:00:41.876Z,100453.17
2019-02-09T15:03:11.735Z,100454.93
2019-02-09T15:05:41.057Z,100451.57
2019-02-09T15:08:10.417Z,100441.17
2019-02-09T15:10:39.745Z,100447.73
2019-02-09T15:13:12.074Z,100437.93
2019-02-09T15:15:54.313Z,100443.22
2019-02-09T15:18:23.772Z,100431.67
2019-02-09T15:20:56.481Z,100429.16
2019-02-09T15:23:25.833Z,100426.62
2019-02-09T15:25:56.973Z,100427.55
2019-02-09T15:28:26.340Z,100423.36
2019-02-09T15:30:55.789Z,100413.46
2019-02-09T15:33:25.298Z,100410.11
2019-02-09T15:35:54.819Z,100412.02
2019-02-09T15:38:24.182Z,100398.80
2019-02-09T15:40:53.605Z,100391.60
2019-02-09T15:43:22.949Z,100407.90
2019-02-09T15:45:52.529Z,100400.94
2019-02-09T15:48:22.451Z,100392.28
2019-02-09T15:50:52.031Z,100400.09
2019-02-09T15:53:22.470Z,100410.36
2019-02-09T15:55:52.926Z,100386.48
2019-02-09T15:58:22.232Z,100401.77
2019-02-09T16:00:51.613Z,100391.86
2019-02-09T16:03:21.062Z,100382.91
2019-02-09T16:05:50.432Z,100373.80
2019-02-09T16:08:21.611Z,100367.14
2019-02-09T16:10:50.944Z,100358.67
2019-02-09T16:13:21.516Z,100367.05
2019-02-09T16:15:52.776Z,100362.66
2019-02-09T16:18:22.052Z,100375.64
2019-02-09T16:20:51.457Z,100363.52
2019-02-09T16:23:20.842Z,100367.00
2019-02-09T16:25:50.188Z,100368.39
2019-02-09T16:28:19.547Z,100364.55
2019-02-09T16:30:48.950Z,100355.09
2019-02-09T16:33:18.309Z,100350.73
2019-02-09T16:35:47.623Z,100349.91
2019-02-09T16:38:16.949Z,100347.68
2019-02-09T16:40:48.106Z,100348.00
2019-02-09T16:43:17.793Z,100344.95
2019-02-09T16:45:47.158Z,100353.90
2019-02-09T16:48:16.709Z,100348.43
2019-02-09T16:50:46.082Z,100342.57
2019-02-09T16:53:15.451Z,100341.98
2019-02-09T16:55:44.761Z,100340.89
2019-02-09T16:58:14.088Z,100333.91
2019-02-09T17:00:45.396Z,100329.97
2019-02-09T17:03:15.148Z,100330.37
2019-02-09T17:05:44.517Z,100327.59
2019-02-09T17:08:14.305Z,100332.34
2019-02-09T17:10:45.220Z,100322.80
2019-02-09T17:13:14.583Z,100324.50
2019-02-09T17:15:43.982Z,100322.66
2019-02-09T17:18:13.483Z,100312.73
2019-02-09T17:20:42.888Z,100308.78
2019-02-09T17:23:12.217Z,100326.55
2019-02-09T17:25:41.584Z,100310.08
2019-02-09T17:28:10.962Z,100305.70
2019-02-09T17:30:40.476Z,100289.67
2019-02-09T17:33:09.916Z,100285.41
2019-02-09T17:35:39.240Z,100283.72
2019-02-09T17:38:08.756Z,100282.42
2019-02-09T17:40:40.657Z,100270.74
2019-02-09T17:43:10.400Z,100266.00
2019-02-09T17:46:26.499Z,100263.86
2019-02-09T17:48:55.946Z,100258.30
2019-02-09T17:51:25.313Z,100260.50
2019-02-09T17:53:55.642Z,100252.31
2019-02-09T17:56:25.084Z,100252.80
2019-02-09T17:58:54.647Z,100259.34
2019-02-09T18:01:24.031Z,100253.80
2019-02-09T18:03:53.390Z,100252.10
2019-02-09T18:06:22.741Z,100251.25
2019-02-09T18:08:53.092Z,100250.80
2019-02-09T18:11:22.546Z,100251.25
2019-02-09T18:13:51.977Z,100246.52
2019-02-09T18:16:21.363Z,100254.84
2019-02-09T18:18:50.697Z,100252.64
2019-02-09T18:21:20.055Z,100250.10
2019-02-09T18:23:49.416Z,100242.73
2019-02-09T18:26:20.551Z,100246.72
2019-02-09T18:28:49.911Z,100237.72
2019-02-09T18:31:19.272Z,100236.87
2019-02-09T18:33:48.568Z,100238.22
2019-02-09T18:36:18.069Z,100234.02
2019-02-09T18:38:47.420Z,100231.06
2019-02-09T18:41:16.746Z,100227.68
2019-02-09T18:43:47.236Z,100223.42
2019-02-09T18:46:16.576Z,100219.59
2019-02-09T18:48:46.931Z,100218.83
2019-02-09T18:51:16.309Z,100213.55
2019-02-09T18:53:46.664Z,100210.95
2019-02-09T18:56:16.010Z,100210.14
2019-02-09T18:58:45.324Z,100203.17
2019-02-09T19:01:14.686Z,100197.17
2019-02-09T19:03:44.001Z,100192.03
2019-02-09T19:06:13.870Z,100192.13
2019-02-09T19:08:43.409Z,100190.83
2019-02-09T19:11:12.754Z,100184.84
2019-02-09T19:13:42.051Z,100178.00
2019-02-09T19:16:11.517Z,100180.95
2019-02-09T19:18:40.834Z,100174.56
2019-02-09T19:21:13.884Z,100170.22
2019-02-09T19:23:43.240Z,100171.96
2019-02-09T19:26:12.583Z,100169.46
2019-02-09T19:28:41.929Z,100161.28
2019-02-09T19:31:11.238Z,100156.63
2019-02-09T19:33:40.594Z,100149.75
2019-02-09T19:36:10.227Z,100143.27
2019-02-09T19:38:39.568Z,100134.28
2019-02-09T19:41:08.952Z,100135.17
2019-02-09T19:43:38.480Z,100126.19
2019-02-09T19:46:08.729Z,100118.86
2019-02-09T19:48:38.091Z,100112.43
2019-02-09T19:51:07.563Z,100108.17
2019-02-09T19:53:37.050Z,100109.98
2019-02-09T19:56:08.718Z,100102.73
2019-02-09T19:58:38.081Z,100095.11
2019-02-09T20:01:07.516Z,100091.84
2019-02-09T20:03:36.850Z,100090.16
2019-02-09T20:06:06.315Z,100084.58
2019-02-09T20:08:35.662Z,100083.82
2019-02-09T20:11:05.025Z,100074.44
2019-02-09T20:13:34.333Z,100064.97
2019-02-09T20:16:03.731Z,100055.14
2019-02-09T20:18:33.262Z,100047.80
2019-02-09T20:21:02.581Z,100041.02
2019-02-09T20:23:32.165Z,100031.19
2019-02-09T20:26:01.698Z,100026.85
2019-02-09T20:28:31.134Z,100020.82
2019-02-09T20:31:00.666Z,100009.69
2019-02-09T20:33:30.151Z,100009.30
2019-02-09T20:36:00.710Z,100006.70
2019-02-09T20:38:30.249Z,100001.12
2019-02-09T20:41:03.160Z,99997.72
2019-02-09T20:43:32.749Z,100000.23
2019-02-09T20:46:02.262Z,99995.58
2019-02-09T20:48:31.672Z,99996.94
2019-02-09T20:51:01.235Z,99986.20
2019-02-09T20:53:30.645Z,99980.57
2019-02-09T20:56:00.148Z,99980.57
2019-02-09T20:58:29.544Z,99967.22
2019-02-09T21:01:01.505Z,99972.40
2019-02-09T21:03:32.689Z,99964.23
2019-02-09T21:06:02.088Z,99961.64
2019-02-09T21:08:33.811Z,99946.92
2019-02-09T21:11:03.273Z,99936.56
2019-02-09T21:13:32.743Z,99922.75
2019-02-09T21:16:03.017Z,99922.75
2019-02-09T21:18:34.918Z,99917.20
2019-02-09T21:21:04.406Z,99918.02
2019-02-09T21:23:33.773Z,99910.33
2019-02-09T21:26:03.427Z,99901.66
2019-02-09T21:28:32.980Z,99898.22
2019-02-09T21:31:02.661Z,99896.47
2019-02-09T21:33:32.145Z,99890.44
2019-02-09T21:36:01.609Z,99877.48
2019-02-09T21:38:31.074Z,99876.55
2019-02-09T21:41:00.699Z,99866.27
2019-02-09T21:43:30.491Z,99869.31
2019-02-09T21:46:00.187Z,99864.58
2019-02-09T21:48:29.686Z,99855.05
2019-02-09T21:50:59.258Z,99845.98
2019-02-09T21:53:28.828Z,99846.44
2019-02-09T21:55:58.349Z,99845.98
2019-02-09T21:58:27.794Z,99843.39
2019-02-09T22:00:57.280Z,99843.84
2019-02-09T22:03:28.863Z,99835.26
2019-02-09T22:05:58.207Z,99831.72
2019-02-09T22:08:27.519Z,99823.95
2019-02-09T22:10:56.883Z,99829.07
2019-02-09T22:13:26.177Z,99819.61
2019-02-09T22:15:55.518Z,99821.75
2019-02-09T22:18:25.983Z,99812.58
2019-02-09T22:20:55.318Z,99809.98
2019-02-09T22:23:24.628Z,99802.21
2019-02-09T22:25:53.955Z,99797.48
2019-02-09T22:28:23.303Z,99792.69
2019-02-09T22:30:52.740Z,99785.75
2019-02-09T22:33:24.577Z,99784.06
2019-02-09T22:35:59.875Z,99774.09
2019-02-09T22:38:24.175Z,99769.30
2019-02-09T22:40:53.486Z,99767.52
2019-02-09T22:43:22.858Z,99754.55
2019-02-09T22:45:52.213Z,99752.34
2019-02-09T22:48:21.532Z,99751.89
2019-02-09T22:50:50.872Z,99748.84
2019-02-09T22:53:20.257Z,99740.59
2019-02-09T22:55:49.566Z,99737.19
2019-02-09T22:58:19.011Z,99739.28
2019-02-09T23:01:09.169Z,99726.33
2019-02-09T23:03:49.271Z,99723.73
2019-02-09T23:07:06.371Z,99712.91
2019-02-09T23:09:35.688Z,99712.45
2019-02-09T23:12:05.003Z,99701.70
2019-02-09T23:14:34.345Z,99696.52
2019-02-09T23:17:03.856Z,99689.58
2019-02-09T23:19:33.206Z,99678.75
2019-02-09T23:22:02.514Z,99670.98
2019-02-09T23:24:31.873Z,99661.91
2019-02-09T23:27:01.193Z,99651.53
2019-02-09T23:29:30.638Z,99654.12
2019-02-09T23:31:59.954Z,99649.85
2019-02-09T23:34:29.255Z,99640.78
2019-02-09T23:36:58.574Z,99635.59
2019-02-09T23:39:27.884Z,99630.05
2019-02-09T23:41:58.600Z,99625.78
2019-02-09T23:44:27.930Z,99624.48
2019-02-09T23:46:57.272Z,99618.45
2019-02-09T23:49:26.627Z,99618.95
2019-02-09T23:51:55.966Z,99609.88
2019-02-09T23:54:25.376Z,99605.98
2019-02-09T23:56:54.846Z,99602.55
2019-02-09T23:59:24.166Z,99598.20
